sensor_id;sensor_type;location;lat;lon;timestamp;P1;durP1;ratioP1;P2;durP2;ratioP2
77214;SDS011;66210;53.282;9.864;2023-11-21T00:02:21;5.30;;;3.42;;
77214;SDS011;66210;53.282;9.864;2023-11-21T00:04:48;5.80;;;3.03;;
77214;SDS011;66210;53.282;9.864;2023-11-21T00:07:16;5.30;;;3.75;;
77214;SDS011;66210;53.282;9.864;2023-11-21T00:09:43;5.13;;;3.13;;
77214;SDS011;66210;53.282;9.864;2023-11-21T00:12:10;4.93;;;3.00;;
77214;SDS011;66210;53.282;9.864;2023-11-21T00:14:37;6.40;;;3.22;;
77214;SDS011;66210;53.282;9.864;2023-11-21T00:17:04;4.53;;;2.85;;
77214;SDS011;66210;53.282;9.864;2023-11-21T00:19:32;5.60;;;2.80;;
77214;SDS011;66210;53.282;9.864;2023-11-21T00:22:01;4.35;;;3.00;;
77214;SDS011;66210;53.282;9.864;2023-11-21T00:24:28;5.70;;;2.80;;
77214;SDS011;66210;53.282;9.864;2023-11-21T00:26:54;6.97;;;3.80;;
77214;SDS011;66210;53.282;9.864;2023-11-21T00:29:21;5.72;;;3.67;;
77214;SDS011;66210;53.282;9.864;2023-11-21T00:31:48;7.07;;;4.00;;
77214;SDS011;66210;53.282;9.864;2023-11-21T00:34:15;10.38;;;4.90;;
77214;SDS011;66210;53.282;9.864;2023-11-21T00:36:42;8.88;;;4.47;;
77214;SDS011;66210;53.282;9.864;2023-11-21T00:39:08;11.25;;;5.00;;
77214;SDS011;66210;53.282;9.864;2023-11-21T00:41:35;8.05;;;5.15;;
77214;SDS011;66210;53.282;9.864;2023-11-21T00:44:03;8.35;;;4.95;;
77214;SDS011;66210;53.282;9.864;2023-11-21T00:46:30;12.60;;;6.30;;
77214;SDS011;66210;53.282;9.864;2023-11-21T00:48:57;12.20;;;7.18;;
77214;SDS011;66210;53.282;9.864;2023-11-21T00:51:24;7.13;;;4.65;;
77214;SDS011;66210;53.282;9.864;2023-11-21T00:53:51;8.27;;;5.40;;
77214;SDS011;66210;53.282;9.864;2023-11-21T00:56:17;8.02;;;5.30;;
77214;SDS011;66210;53.282;9.864;2023-11-21T00:58:44;9.73;;;4.40;;
77214;SDS011;66210;53.282;9.864;2023-11-21T01:01:16;7.20;;;4.45;;
77214;SDS011;66210;53.282;9.864;2023-11-21T01:03:43;7.20;;;3.58;;
77214;SDS011;66210;53.282;9.864;2023-11-21T01:06:12;7.22;;;3.80;;
77214;SDS011;66210;53.282;9.864;2023-11-21T01:08:41;5.20;;;3.70;;
77214;SDS011;66210;53.282;9.864;2023-11-21T01:11:08;11.10;;;3.72;;
77214;SDS011;66210;53.282;9.864;2023-11-21T01:13:37;6.57;;;3.55;;
77214;SDS011;66210;53.282;9.864;2023-11-21T01:16:05;5.65;;;3.70;;
77214;SDS011;66210;53.282;9.864;2023-11-21T01:18:32;6.75;;;3.92;;
77214;SDS011;66210;53.282;9.864;2023-11-21T01:20:59;12.02;;;4.03;;
77214;SDS011;66210;53.282;9.864;2023-11-21T01:23:27;7.70;;;4.53;;
77214;SDS011;66210;53.282;9.864;2023-11-21T01:25:55;7.57;;;4.10;;
77214;SDS011;66210;53.282;9.864;2023-11-21T01:28:22;8.02;;;4.10;;
77214;SDS011;66210;53.282;9.864;2023-11-21T01:30:49;7.90;;;4.70;;
77214;SDS011;66210;53.282;9.864;2023-11-21T01:33:16;6.65;;;4.10;;
77214;SDS011;66210;53.282;9.864;2023-11-21T01:35:43;9.82;;;3.97;;
77214;SDS011;66210;53.282;9.864;2023-11-21T01:38:10;6.45;;;3.95;;
77214;SDS011;66210;53.282;9.864;2023-11-21T01:40:37;8.75;;;4.32;;
77214;SDS011;66210;53.282;9.864;2023-11-21T01:43:03;8.88;;;4.72;;
77214;SDS011;66210;53.282;9.864;2023-11-21T01:45:30;10.88;;;4.63;;
77214;SDS011;66210;53.282;9.864;2023-11-21T01:48:00;11.05;;;4.85;;
77214;SDS011;66210;53.282;9.864;2023-11-21T01:50:29;9.35;;;4.60;;
77214;SDS011;66210;53.282;9.864;2023-11-21T01:52:57;12.15;;;5.18;;
77214;SDS011;66210;53.282;9.864;2023-11-21T01:55:24;8.50;;;5.05;;
77214;SDS011;66210;53.282;9.864;2023-11-21T01:57:54;9.70;;;5.22;;
77214;SDS011;66210;53.282;9.864;2023-11-21T02:00:22;9.88;;;5.45;;
77214;SDS011;66210;53.282;9.864;2023-11-21T02:02:51;9.90;;;5.43;;
77214;SDS011;66210;53.282;9.864;2023-11-21T02:05:18;10.02;;;6.18;;
77214;SDS011;66210;53.282;9.864;2023-11-21T02:07:46;10.48;;;6.25;;
77214;SDS011;66210;53.282;9.864;2023-11-21T02:10:15;11.50;;;6.72;;
77214;SDS011;66210;53.282;9.864;2023-11-21T02:12:43;14.82;;;6.80;;
77214;SDS011;66210;53.282;9.864;2023-11-21T02:15:14;11.55;;;6.88;;
77214;SDS011;66210;53.282;9.864;2023-11-21T02:17:47;12.50;;;7.15;;
77214;SDS011;66210;53.282;9.864;2023-11-21T02:20:18;12.70;;;6.88;;
77214;SDS011;66210;53.282;9.864;2023-11-21T02:22:56;12.52;;;7.35;;
77214;SDS011;66210;53.282;9.864;2023-11-21T02:25:28;12.05;;;5.95;;
77214;SDS011;66210;53.282;9.864;2023-11-21T02:27:56;11.70;;;6.28;;
77214;SDS011;66210;53.282;9.864;2023-11-21T02:30:25;8.73;;;5.68;;
77214;SDS011;66210;53.282;9.864;2023-11-21T02:32:52;13.77;;;6.60;;
77214;SDS011;66210;53.282;9.864;2023-11-21T02:35:23;11.05;;;6.28;;
77214;SDS011;66210;53.282;9.864;2023-11-21T02:37:52;11.43;;;6.72;;
77214;SDS011;66210;53.282;9.864;2023-11-21T02:40:20;9.38;;;5.85;;
77214;SDS011;66210;53.282;9.864;2023-11-21T02:42:47;11.00;;;6.75;;
77214;SDS011;66210;53.282;9.864;2023-11-21T02:45:14;9.95;;;5.97;;
77214;SDS011;66210;53.282;9.864;2023-11-21T02:47:44;13.50;;;7.25;;
77214;SDS011;66210;53.282;9.864;2023-11-21T02:50:11;10.98;;;6.53;;
77214;SDS011;66210;53.282;9.864;2023-11-21T02:52:39;14.07;;;7.00;;
77214;SDS011;66210;53.282;9.864;2023-11-21T02:55:09;15.00;;;8.63;;
77214;SDS011;66210;53.282;9.864;2023-11-21T02:57:35;15.27;;;7.88;;
77214;SDS011;66210;53.282;9.864;2023-11-21T03:00:02;15.40;;;7.63;;
77214;SDS011;66210;53.282;9.864;2023-11-21T03:02:30;12.07;;;7.38;;
77214;SDS011;66210;53.282;9.864;2023-11-21T03:04:57;14.52;;;8.00;;
77214;SDS011;66210;53.282;9.864;2023-11-21T03:07:23;12.27;;;7.07;;
77214;SDS011;66210;53.282;9.864;2023-11-21T03:09:50;14.07;;;7.00;;
77214;SDS011;66210;53.282;9.864;2023-11-21T03:12:17;11.68;;;7.07;;
77214;SDS011;66210;53.282;9.864;2023-11-21T03:14:44;10.00;;;6.35;;
77214;SDS011;66210;53.282;9.864;2023-11-21T03:17:10;10.85;;;7.00;;
77214;SDS011;66210;53.282;9.864;2023-11-21T03:19:38;12.90;;;6.40;;
77214;SDS011;66210;53.282;9.864;2023-11-21T03:22:04;9.38;;;6.15;;
77214;SDS011;66210;53.282;9.864;2023-11-21T03:24:31;10.13;;;6.50;;
77214;SDS011;66210;53.282;9.864;2023-11-21T03:26:58;8.50;;;5.85;;
77214;SDS011;66210;53.282;9.864;2023-11-21T03:29:25;9.70;;;5.65;;
77214;SDS011;66210;53.282;9.864;2023-11-21T03:31:52;8.60;;;5.57;;
77214;SDS011;66210;53.282;9.864;2023-11-21T03:34:26;9.77;;;5.82;;
77214;SDS011;66210;53.282;9.864;2023-11-21T03:36:54;10.02;;;5.88;;
77214;SDS011;66210;53.282;9.864;2023-11-21T03:39:21;13.45;;;6.45;;
77214;SDS011;66210;53.282;9.864;2023-11-21T03:41:49;10.95;;;5.35;;
77214;SDS011;66210;53.282;9.864;2023-11-21T03:44:15;10.25;;;5.38;;
77214;SDS011;66210;53.282;9.864;2023-11-21T03:46:42;9.77;;;5.55;;
77214;SDS011;66210;53.282;9.864;2023-11-21T03:49:09;9.70;;;6.13;;
77214;SDS011;66210;53.282;9.864;2023-11-21T03:51:37;10.52;;;5.45;;
77214;SDS011;66210;53.282;9.864;2023-11-21T03:54:03;8.75;;;5.07;;
77214;SDS011;66210;53.282;9.864;2023-11-21T03:56:30;8.77;;;5.50;;
77214;SDS011;66210;53.282;9.864;2023-11-21T03:58:57;9.05;;;5.35;;
77214;SDS011;66210;53.282;9.864;2023-11-21T04:01:24;9.00;;;4.60;;
77214;SDS011;66210;53.282;9.864;2023-11-21T04:03:51;11.57;;;4.93;;
77214;SDS011;66210;53.282;9.864;2023-11-21T04:06:18;7.97;;;5.00;;
77214;SDS011;66210;53.282;9.864;2023-11-21T04:08:44;7.95;;;5.05;;
77214;SDS011;66210;53.282;9.864;2023-11-21T04:11:12;7.65;;;4.68;;
77214;SDS011;66210;53.282;9.864;2023-11-21T04:13:39;7.10;;;4.75;;
77214;SDS011;66210;53.282;9.864;2023-11-21T04:16:07;10.20;;;5.55;;
77214;SDS011;66210;53.282;9.864;2023-11-21T04:18:37;11.30;;;5.57;;
77214;SDS011;66210;53.282;9.864;2023-11-21T04:21:05;7.95;;;5.15;;
77214;SDS011;66210;53.282;9.864;2023-11-21T04:23:33;8.30;;;5.45;;
77214;SDS011;66210;53.282;9.864;2023-11-21T04:26:00;10.82;;;4.82;;
77214;SDS011;66210;53.282;9.864;2023-11-21T04:28:29;8.88;;;5.20;;
77214;SDS011;66210;53.282;9.864;2023-11-21T04:30:55;11.00;;;5.70;;
77214;SDS011;66210;53.282;9.864;2023-11-21T04:33:22;11.90;;;5.43;;
77214;SDS011;66210;53.282;9.864;2023-11-21T04:35:49;12.82;;;5.65;;
77214;SDS011;66210;53.282;9.864;2023-11-21T04:38:15;8.90;;;5.10;;
77214;SDS011;66210;53.282;9.864;2023-11-21T04:40:42;8.13;;;5.53;;
77214;SDS011;66210;53.282;9.864;2023-11-21T04:43:08;10.20;;;5.70;;
77214;SDS011;66210;53.282;9.864;2023-11-21T04:45:35;10.07;;;5.45;;
77214;SDS011;66210;53.282;9.864;2023-11-21T04:48:02;11.40;;;6.30;;
77214;SDS011;66210;53.282;9.864;2023-11-21T04:50:28;13.27;;;5.85;;
77214;SDS011;66210;53.282;9.864;2023-11-21T04:52:55;10.05;;;5.07;;
77214;SDS011;66210;53.282;9.864;2023-11-21T04:55:22;8.88;;;6.05;;
77214;SDS011;66210;53.282;9.864;2023-11-21T04:57:48;8.88;;;4.97;;
77214;SDS011;66210;53.282;9.864;2023-11-21T05:00:15;8.50;;;5.32;;
77214;SDS011;66210;53.282;9.864;2023-11-21T05:02:42;9.35;;;5.07;;
77214;SDS011;66210;53.282;9.864;2023-11-21T05:05:10;11.20;;;5.43;;
77214;SDS011;66210;53.282;9.864;2023-11-21T05:07:37;8.25;;;4.72;;
77214;SDS011;66210;53.282;9.864;2023-11-21T05:10:05;9.10;;;5.25;;
77214;SDS011;66210;53.282;9.864;2023-11-21T05:12:35;15.27;;;5.82;;
77214;SDS011;66210;53.282;9.864;2023-11-21T05:15:03;9.57;;;5.65;;
77214;SDS011;66210;53.282;9.864;2023-11-21T05:17:37;9.68;;;5.05;;
77214;SDS011;66210;53.282;9.864;2023-11-21T05:20:16;9.50;;;5.30;;
77214;SDS011;66210;53.282;9.864;2023-11-21T05:22:49;8.65;;;5.40;;
77214;SDS011;66210;53.282;9.864;2023-11-21T05:25:16;10.20;;;5.32;;
77214;SDS011;66210;53.282;9.864;2023-11-21T05:27:48;15.27;;;6.05;;
77214;SDS011;66210;53.282;9.864;2023-11-21T05:30:14;8.95;;;5.70;;
77214;SDS011;66210;53.282;9.864;2023-11-21T05:32:41;9.60;;;5.70;;
77214;SDS011;66210;53.282;9.864;2023-11-21T05:35:12;13.25;;;5.93;;
77214;SDS011;66210;53.282;9.864;2023-11-21T05:37:43;13.57;;;5.78;;
77214;SDS011;66210;53.282;9.864;2023-11-21T05:40:10;11.85;;;6.18;;
77214;SDS011;66210;53.282;9.864;2023-11-21T05:42:39;8.85;;;5.80;;
77214;SDS011;66210;53.282;9.864;2023-11-21T05:45:07;9.52;;;6.05;;
77214;SDS011;66210;53.282;9.864;2023-11-21T05:47:45;17.27;;;5.82;;
77214;SDS011;66210;53.282;9.864;2023-11-21T05:50:14;10.68;;;5.88;;
77214;SDS011;66210;53.282;9.864;2023-11-21T05:52:43;9.05;;;5.88;;
77214;SDS011;66210;53.282;9.864;2023-11-21T05:55:11;14.77;;;6.22;;
77214;SDS011;66210;53.282;9.864;2023-11-21T05:57:40;10.85;;;6.10;;
77214;SDS011;66210;53.282;9.864;2023-11-21T06:00:08;10.07;;;5.93;;
77214;SDS011;66210;53.282;9.864;2023-11-21T06:02:44;15.27;;;6.28;;
77214;SDS011;66210;53.282;9.864;2023-11-21T06:05:11;11.23;;;5.85;;
77214;SDS011;66210;53.282;9.864;2023-11-21T06:07:38;11.43;;;6.05;;
77214;SDS011;66210;53.282;9.864;2023-11-21T06:10:05;10.18;;;5.55;;
77214;SDS011;66210;53.282;9.864;2023-11-21T06:12:35;14.00;;;6.43;;
77214;SDS011;66210;53.282;9.864;2023-11-21T06:15:03;18.52;;;6.97;;
77214;SDS011;66210;53.282;9.864;2023-11-21T06:17:31;12.68;;;7.22;;
77214;SDS011;66210;53.282;9.864;2023-11-21T06:19:58;8.40;;;5.50;;
77214;SDS011;66210;53.282;9.864;2023-11-21T06:22:25;8.95;;;5.63;;
77214;SDS011;66210;53.282;9.864;2023-11-21T06:24:51;9.48;;;6.00;;
77214;SDS011;66210;53.282;9.864;2023-11-21T06:27:18;8.77;;;5.90;;
77214;SDS011;66210;53.282;9.864;2023-11-21T06:29:44;8.20;;;5.55;;
77214;SDS011;66210;53.282;9.864;2023-11-21T06:32:11;12.10;;;5.88;;
77214;SDS011;66210;53.282;9.864;2023-11-21T06:34:37;11.93;;;6.25;;
77214;SDS011;66210;53.282;9.864;2023-11-21T06:37:04;10.57;;;5.53;;
77214;SDS011;66210;53.282;9.864;2023-11-21T06:39:31;12.43;;;5.93;;
77214;SDS011;66210;53.282;9.864;2023-11-21T06:41:58;9.23;;;5.47;;
77214;SDS011;66210;53.282;9.864;2023-11-21T06:44:26;10.55;;;5.93;;
77214;SDS011;66210;53.282;9.864;2023-11-21T06:46:53;9.95;;;6.30;;
77214;SDS011;66210;53.282;9.864;2023-11-21T06:49:20;11.07;;;5.85;;
77214;SDS011;66210;53.282;9.864;2023-11-21T06:51:47;9.88;;;5.90;;
77214;SDS011;66210;53.282;9.864;2023-11-21T06:54:13;10.32;;;5.65;;
77214;SDS011;66210;53.282;9.864;2023-11-21T06:56:40;10.10;;;6.40;;
77214;SDS011;66210;53.282;9.864;2023-11-21T06:59:07;11.73;;;5.90;;
77214;SDS011;66210;53.282;9.864;2023-11-21T07:01:35;10.90;;;6.15;;
77214;SDS011;66210;53.282;9.864;2023-11-21T07:04:05;10.52;;;5.82;;
77214;SDS011;66210;53.282;9.864;2023-11-21T07:06:33;9.65;;;6.03;;
77214;SDS011;66210;53.282;9.864;2023-11-21T07:08:59;8.70;;;5.78;;
77214;SDS011;66210;53.282;9.864;2023-11-21T07:11:27;9.02;;;5.70;;
77214;SDS011;66210;53.282;9.864;2023-11-21T07:13:54;15.98;;;6.38;;
77214;SDS011;66210;53.282;9.864;2023-11-21T07:16:20;9.02;;;5.70;;
77214;SDS011;66210;53.282;9.864;2023-11-21T07:18:47;10.05;;;6.03;;
77214;SDS011;66210;53.282;9.864;2023-11-21T07:21:15;12.70;;;6.07;;
77214;SDS011;66210;53.282;9.864;2023-11-21T07:23:42;10.35;;;6.35;;
77214;SDS011;66210;53.282;9.864;2023-11-21T07:26:09;13.50;;;6.40;;
77214;SDS011;66210;53.282;9.864;2023-11-21T07:28:37;10.65;;;5.68;;
77214;SDS011;66210;53.282;9.864;2023-11-21T07:31:04;11.32;;;6.28;;
77214;SDS011;66210;53.282;9.864;2023-11-21T07:33:30;9.73;;;6.63;;
77214;SDS011;66210;53.282;9.864;2023-11-21T07:35:57;14.77;;;6.45;;
77214;SDS011;66210;53.282;9.864;2023-11-21T07:38:24;11.68;;;6.72;;
77214;SDS011;66210;53.282;9.864;2023-11-21T07:40:50;10.57;;;6.07;;
77214;SDS011;66210;53.282;9.864;2023-11-21T07:43:17;11.95;;;7.28;;
77214;SDS011;66210;53.282;9.864;2023-11-21T07:45:45;10.02;;;6.22;;
77214;SDS011;66210;53.282;9.864;2023-11-21T07:48:12;13.00;;;6.25;;
77214;SDS011;66210;53.282;9.864;2023-11-21T07:50:39;10.77;;;5.50;;
77214;SDS011;66210;53.282;9.864;2023-11-21T07:53:06;12.15;;;6.35;;
77214;SDS011;66210;53.282;9.864;2023-11-21T07:55:33;9.18;;;5.72;;
77214;SDS011;66210;53.282;9.864;2023-11-21T07:58:00;8.80;;;5.47;;
77214;SDS011;66210;53.282;9.864;2023-11-21T08:00:26;11.73;;;6.25;;
77214;SDS011;66210;53.282;9.864;2023-11-21T08:02:56;11.65;;;6.78;;
77214;SDS011;66210;53.282;9.864;2023-11-21T08:05:23;14.02;;;6.05;;
77214;SDS011;66210;53.282;9.864;2023-11-21T08:08:02;8.40;;;5.30;;
77214;SDS011;66210;53.282;9.864;2023-11-21T08:10:29;10.05;;;6.10;;
77214;SDS011;66210;53.282;9.864;2023-11-21T08:12:56;13.98;;;6.10;;
77214;SDS011;66210;53.282;9.864;2023-11-21T08:15:23;9.85;;;6.03;;
77214;SDS011;66210;53.282;9.864;2023-11-21T08:17:50;9.25;;;6.40;;
77214;SDS011;66210;53.282;9.864;2023-11-21T08:20:17;10.68;;;6.47;;
77214;SDS011;66210;53.282;9.864;2023-11-21T08:22:45;12.63;;;6.97;;
77214;SDS011;66210;53.282;9.864;2023-11-21T08:25:14;11.07;;;6.97;;
77214;SDS011;66210;53.282;9.864;2023-11-21T08:27:41;9.85;;;6.20;;
77214;SDS011;66210;53.282;9.864;2023-11-21T08:30:08;11.45;;;6.57;;
77214;SDS011;66210;53.282;9.864;2023-11-21T08:32:35;10.85;;;6.10;;
77214;SDS011;66210;53.282;9.864;2023-11-21T08:35:02;14.90;;;6.72;;
77214;SDS011;66210;53.282;9.864;2023-11-21T08:37:29;10.30;;;6.30;;
77214;SDS011;66210;53.282;9.864;2023-11-21T08:40:00;14.20;;;7.07;;
77214;SDS011;66210;53.282;9.864;2023-11-21T08:42:26;11.05;;;7.03;;
77214;SDS011;66210;53.282;9.864;2023-11-21T08:44:56;14.68;;;7.18;;
77214;SDS011;66210;53.282;9.864;2023-11-21T08:47:24;14.05;;;7.40;;
77214;SDS011;66210;53.282;9.864;2023-11-21T08:49:54;13.13;;;7.18;;
77214;SDS011;66210;53.282;9.864;2023-11-21T08:52:21;9.82;;;5.97;;
77214;SDS011;66210;53.282;9.864;2023-11-21T08:54:49;11.32;;;6.72;;
77214;SDS011;66210;53.282;9.864;2023-11-21T08:57:24;12.43;;;6.78;;
77214;SDS011;66210;53.282;9.864;2023-11-21T08:59:52;10.25;;;6.68;;
77214;SDS011;66210;53.282;9.864;2023-11-21T09:02:27;9.85;;;6.40;;
77214;SDS011;66210;53.282;9.864;2023-11-21T09:04:54;11.95;;;7.10;;
77214;SDS011;66210;53.282;9.864;2023-11-21T09:07:20;12.18;;;7.57;;
77214;SDS011;66210;53.282;9.864;2023-11-21T09:09:47;9.68;;;6.20;;
77214;SDS011;66210;53.282;9.864;2023-11-21T09:12:15;12.38;;;6.93;;
77214;SDS011;66210;53.282;9.864;2023-11-21T09:14:42;10.73;;;6.00;;
77214;SDS011;66210;53.282;9.864;2023-11-21T09:17:10;9.93;;;6.00;;
77214;SDS011;66210;53.282;9.864;2023-11-21T09:19:42;11.38;;;7.10;;
77214;SDS011;66210;53.282;9.864;2023-11-21T09:22:19;10.93;;;6.75;;
77214;SDS011;66210;53.282;9.864;2023-11-21T09:24:46;14.25;;;7.30;;
77214;SDS011;66210;53.282;9.864;2023-11-21T09:27:16;12.20;;;7.07;;
77214;SDS011;66210;53.282;9.864;2023-11-21T09:29:43;13.15;;;7.22;;
77214;SDS011;66210;53.282;9.864;2023-11-21T09:32:10;11.55;;;6.85;;
77214;SDS011;66210;53.282;9.864;2023-11-21T09:34:38;12.85;;;6.35;;
77214;SDS011;66210;53.282;9.864;2023-11-21T09:37:05;8.77;;;5.93;;
77214;SDS011;66210;53.282;9.864;2023-11-21T09:39:33;12.48;;;6.82;;
77214;SDS011;66210;53.282;9.864;2023-11-21T09:47:42;9.43;;;6.03;;
77214;SDS011;66210;53.282;9.864;2023-11-21T09:50:09;11.50;;;6.07;;
77214;SDS011;66210;53.282;9.864;2023-11-21T09:52:47;11.80;;;6.18;;
77214;SDS011;66210;53.282;9.864;2023-11-21T09:55:21;8.15;;;6.05;;
77214;SDS011;66210;53.282;9.864;2023-11-21T09:57:48;13.30;;;6.88;;
77214;SDS011;66210;53.282;9.864;2023-11-21T10:00:15;10.63;;;6.07;;
77214;SDS011;66210;53.282;9.864;2023-11-21T10:02:44;10.15;;;6.13;;
77214;SDS011;66210;53.282;9.864;2023-11-21T10:05:11;11.00;;;6.65;;
77214;SDS011;66210;53.282;9.864;2023-11-21T10:07:41;11.77;;;6.50;;
77214;SDS011;66210;53.282;9.864;2023-11-21T10:10:11;11.43;;;6.32;;
77214;SDS011;66210;53.282;9.864;2023-11-21T10:12:38;10.05;;;6.13;;
77214;SDS011;66210;53.282;9.864;2023-11-21T10:15:07;10.00;;;5.72;;
77214;SDS011;66210;53.282;9.864;2023-11-21T10:17:38;10.48;;;5.38;;
77214;SDS011;66210;53.282;9.864;2023-11-21T10:20:10;11.15;;;5.53;;
77214;SDS011;66210;53.282;9.864;2023-11-21T10:22:38;10.07;;;5.85;;
77214;SDS011;66210;53.282;9.864;2023-11-21T10:25:08;7.57;;;5.13;;
77214;SDS011;66210;53.282;9.864;2023-11-21T10:27:37;9.35;;;4.82;;
77214;SDS011;66210;53.282;9.864;2023-11-21T10:30:07;8.60;;;5.20;;
77214;SDS011;66210;53.282;9.864;2023-11-21T10:32:42;9.65;;;4.97;;
77214;SDS011;66210;53.282;9.864;2023-11-21T10:35:10;9.63;;;5.20;;
77214;SDS011;66210;53.282;9.864;2023-11-21T10:37:39;8.77;;;5.00;;
77214;SDS011;66210;53.282;9.864;2023-11-21T10:40:11;8.10;;;4.50;;
77214;SDS011;66210;53.282;9.864;2023-11-21T10:42:39;6.18;;;4.20;;
77214;SDS011;66210;53.282;9.864;2023-11-21T10:45:07;19.08;;;4.38;;
77214;SDS011;66210;53.282;9.864;2023-11-21T10:47:41;8.25;;;4.20;;
77214;SDS011;66210;53.282;9.864;2023-11-21T10:50:08;7.15;;;4.43;;
77214;SDS011;66210;53.282;9.864;2023-11-21T10:52:39;10.77;;;4.22;;
77214;SDS011;66210;53.282;9.864;2023-11-21T10:55:18;6.72;;;3.80;;
77214;SDS011;66210;53.282;9.864;2023-11-21T10:57:48;7.72;;;3.67;;
77214;SDS011;66210;53.282;9.864;2023-11-21T11:02:50;4.82;;;3.40;;
77214;SDS011;66210;53.282;9.864;2023-11-21T11:05:19;5.88;;;3.88;;
77214;SDS011;66210;53.282;9.864;2023-11-21T11:07:50;7.03;;;3.85;;
77214;SDS011;66210;53.282;9.864;2023-11-21T11:10:26;6.68;;;3.15;;
77214;SDS011;66210;53.282;9.864;2023-11-21T11:12:54;6.68;;;3.53;;
77214;SDS011;66210;53.282;9.864;2023-11-21T11:15:21;5.25;;;3.67;;
77214;SDS011;66210;53.282;9.864;2023-11-21T11:17:48;5.55;;;3.03;;
77214;SDS011;66210;53.282;9.864;2023-11-21T11:20:16;6.32;;;3.55;;
77214;SDS011;66210;53.282;9.864;2023-11-21T11:22:47;4.97;;;3.15;;
77214;SDS011;66210;53.282;9.864;2023-11-21T11:28:22;5.60;;;3.63;;
77214;SDS011;66210;53.282;9.864;2023-11-21T11:36:23;5.10;;;3.22;;
77214;SDS011;66210;53.282;9.864;2023-11-21T11:38:55;4.93;;;3.45;;
77214;SDS011;66210;53.282;9.864;2023-11-21T11:41:26;4.53;;;3.05;;
77214;SDS011;66210;53.282;9.864;2023-11-21T11:43:56;5.35;;;3.47;;
77214;SDS011;66210;53.282;9.864;2023-11-21T11:46:44;5.35;;;3.22;;
77214;SDS011;66210;53.282;9.864;2023-11-21T11:49:24;5.70;;;3.30;;
77214;SDS011;66210;53.282;9.864;2023-11-21T11:55:02;4.75;;;2.80;;
77214;SDS011;66210;53.282;9.864;2023-11-21T11:57:30;6.93;;;3.50;;
77214;SDS011;66210;53.282;9.864;2023-11-21T12:00:14;5.40;;;3.33;;
77214;SDS011;66210;53.282;9.864;2023-11-21T12:02:44;4.57;;;3.05;;
77214;SDS011;66210;53.282;9.864;2023-11-21T12:05:12;6.82;;;3.30;;
77214;SDS011;66210;53.282;9.864;2023-11-21T12:07:43;4.35;;;2.75;;
77214;SDS011;66210;53.282;9.864;2023-11-21T12:10:18;5.97;;;3.08;;
77214;SDS011;66210;53.282;9.864;2023-11-21T12:12:46;5.32;;;3.33;;
77214;SDS011;66210;53.282;9.864;2023-11-21T12:15:14;6.35;;;3.42;;
77214;SDS011;66210;53.282;9.864;2023-11-21T12:17:42;5.80;;;3.30;;
77214;SDS011;66210;53.282;9.864;2023-11-21T12:20:10;5.82;;;3.30;;
77214;SDS011;66210;53.282;9.864;2023-11-21T12:22:42;4.72;;;3.25;;
77214;SDS011;66210;53.282;9.864;2023-11-21T12:25:17;5.00;;;3.00;;
77214;SDS011;66210;53.282;9.864;2023-11-21T12:27:49;5.28;;;3.05;;
77214;SDS011;66210;53.282;9.864;2023-11-21T12:30:19;6.80;;;3.05;;
77214;SDS011;66210;53.282;9.864;2023-11-21T12:32:49;4.72;;;2.83;;
77214;SDS011;66210;53.282;9.864;2023-11-21T12:35:23;6.05;;;3.10;;
77214;SDS011;66210;53.282;9.864;2023-11-21T12:37:51;7.47;;;3.22;;
77214;SDS011;66210;53.282;9.864;2023-11-21T12:40:19;4.10;;;2.90;;
77214;SDS011;66210;53.282;9.864;2023-11-21T12:42:51;4.18;;;2.80;;
77214;SDS011;66210;53.282;9.864;2023-11-21T12:45:20;3.70;;;2.90;;
77214;SDS011;66210;53.282;9.864;2023-11-21T12:47:55;4.05;;;2.50;;
77214;SDS011;66210;53.282;9.864;2023-11-21T12:50:23;3.78;;;2.63;;
77214;SDS011;66210;53.282;9.864;2023-11-21T12:52:58;5.75;;;3.40;;
77214;SDS011;66210;53.282;9.864;2023-11-21T12:55:26;6.13;;;3.92;;
77214;SDS011;66210;53.282;9.864;2023-11-21T12:57:56;4.35;;;2.70;;
77214;SDS011;66210;53.282;9.864;2023-11-21T13:00:34;4.30;;;2.80;;
77214;SDS011;66210;53.282;9.864;2023-11-21T13:03:06;4.82;;;3.15;;
77214;SDS011;66210;53.282;9.864;2023-11-21T13:05:39;5.55;;;2.78;;
77214;SDS011;66210;53.282;9.864;2023-11-21T13:08:09;5.07;;;2.95;;
77214;SDS011;66210;53.282;9.864;2023-11-21T13:10:39;5.95;;;2.90;;
77214;SDS011;66210;53.282;9.864;2023-11-21T13:13:10;4.85;;;2.90;;
77214;SDS011;66210;53.282;9.864;2023-11-21T13:15:49;5.22;;;2.53;;
77214;SDS011;66210;53.282;9.864;2023-11-21T13:18:19;5.00;;;2.83;;
77214;SDS011;66210;53.282;9.864;2023-11-21T13:20:48;5.38;;;2.72;;
77214;SDS011;66210;53.282;9.864;2023-11-21T13:23:16;6.55;;;3.30;;
77214;SDS011;66210;53.282;9.864;2023-11-21T13:25:43;4.20;;;2.80;;
77214;SDS011;66210;53.282;9.864;2023-11-21T13:28:20;5.00;;;2.60;;
77214;SDS011;66210;53.282;9.864;2023-11-21T13:30:48;3.80;;;2.67;;
77214;SDS011;66210;53.282;9.864;2023-11-21T13:33:15;5.00;;;2.75;;
77214;SDS011;66210;53.282;9.864;2023-11-21T13:35:47;7.35;;;2.97;;
77214;SDS011;66210;53.282;9.864;2023-11-21T13:38:17;7.20;;;2.88;;
77214;SDS011;66210;53.282;9.864;2023-11-21T13:40:52;5.22;;;2.85;;
77214;SDS011;66210;53.282;9.864;2023-11-21T13:43:21;5.47;;;3.08;;
77214;SDS011;66210;53.282;9.864;2023-11-21T13:45:51;6.10;;;3.40;;
77214;SDS011;66210;53.282;9.864;2023-11-21T13:48:26;5.40;;;3.28;;
77214;SDS011;66210;53.282;9.864;2023-11-21T13:51:07;3.80;;;2.80;;
77214;SDS011;66210;53.282;9.864;2023-11-21T13:53:44;6.25;;;3.33;;
77214;SDS011;66210;53.282;9.864;2023-11-21T13:56:14;6.65;;;3.70;;
77214;SDS011;66210;53.282;9.864;2023-11-21T13:58:46;7.93;;;3.30;;
77214;SDS011;66210;53.282;9.864;2023-11-21T14:01:20;8.95;;;3.65;;
77214;SDS011;66210;53.282;9.864;2023-11-21T14:04:11;8.10;;;3.60;;
77214;SDS011;66210;53.282;9.864;2023-11-21T14:06:46;7.07;;;3.67;;
77214;SDS011;66210;53.282;9.864;2023-11-21T14:09:16;4.70;;;3.38;;
77214;SDS011;66210;53.282;9.864;2023-11-21T14:11:52;5.18;;;3.30;;
77214;SDS011;66210;53.282;9.864;2023-11-21T14:14:20;6.80;;;3.00;;
77214;SDS011;66210;53.282;9.864;2023-11-21T14:16:48;4.72;;;2.67;;
77214;SDS011;66210;53.282;9.864;2023-11-21T14:19:15;6.30;;;3.60;;
77214;SDS011;66210;53.282;9.864;2023-11-21T14:21:43;4.28;;;3.20;;
77214;SDS011;66210;53.282;9.864;2023-11-21T14:24:11;6.22;;;2.88;;
77214;SDS011;66210;53.282;9.864;2023-11-21T14:27:01;6.38;;;3.08;;
77214;SDS011;66210;53.282;9.864;2023-11-21T14:29:27;4.60;;;3.03;;
77214;SDS011;66210;53.282;9.864;2023-11-21T14:31:55;5.80;;;3.13;;
77214;SDS011;66210;53.282;9.864;2023-11-21T14:34:24;6.15;;;3.10;;
77214;SDS011;66210;53.282;9.864;2023-11-21T14:36:53;5.60;;;3.47;;
77214;SDS011;66210;53.282;9.864;2023-11-21T14:39:19;6.30;;;3.28;;
77214;SDS011;66210;53.282;9.864;2023-11-21T14:41:50;6.78;;;3.50;;
77214;SDS011;66210;53.282;9.864;2023-11-21T14:44:19;6.03;;;3.13;;
77214;SDS011;66210;53.282;9.864;2023-11-21T14:46:46;4.95;;;2.85;;
77214;SDS011;66210;53.282;9.864;2023-11-21T14:51:46;5.53;;;3.25;;
77214;SDS011;66210;53.282;9.864;2023-11-21T14:54:46;6.55;;;3.33;;
77214;SDS011;66210;53.282;9.864;2023-11-21T14:57:19;5.00;;;3.05;;
77214;SDS011;66210;53.282;9.864;2023-11-21T14:59:48;7.68;;;3.13;;
77214;SDS011;66210;53.282;9.864;2023-11-21T15:02:19;6.10;;;3.78;;
77214;SDS011;66210;53.282;9.864;2023-11-21T15:05:10;5.78;;;3.25;;
77214;SDS011;66210;53.282;9.864;2023-11-21T15:07:43;6.57;;;3.28;;
77214;SDS011;66210;53.282;9.864;2023-11-21T15:10:11;16.33;;;3.38;;
77214;SDS011;66210;53.282;9.864;2023-11-21T15:12:42;6.18;;;3.03;;
77214;SDS011;66210;53.282;9.864;2023-11-21T15:15:10;4.50;;;3.17;;
77214;SDS011;66210;53.282;9.864;2023-11-21T15:17:37;7.45;;;3.35;;